Time;durP1;ratioP1;P1;durP2;ratioP2;P2;SDS_P1;SDS_P2;PMS_P1;PMS_P2;Temp;Humidity;BMP_temperature;BMP_pressure;BME280_temperature;BME280_humidity;BME280_pressure;Samples;Min_cycle;Max_cycle;Signal;HPM_P1;HPM_P2
2021/10/03 00:01:01;;;;;;;16.07;11.63;;;16.30;99.90;;;;;;5095739;28;20446;-69
2021/10/03 00:03:28;;;;;;;13.50;10.80;;;16.30;99.90;;;;;;5095833;28;20457;-69
2021/10/03 00:05:56;;;;;;;13.33;11.93;;;16.20;99.90;;;;;;5095633;28;20515;-69
2021/10/03 00:08:25;;;;;;;12.53;11.33;;;16.20;99.90;;;;;;5095715;28;20458;-69
2021/10/03 00:10:53;;;;;;;15.43;11.47;;;16.30;99.90;;;;;;5095991;28;20928;-69
2021/10/03 00:13:21;;;;;;;15.20;12.17;;;16.30;99.90;;;;;;5095533;28;20453;-70
2021/10/03 00:15:48;;;;;;;13.47;10.27;;;16.30;99.90;;;;;;5095789;28;20489;-70
2021/10/03 00:18:16;;;;;;;14.60;12.50;;;16.20;99.90;;;;;;5095106;28;20523;-70
2021/10/03 00:20:43;;;;;;;14.40;11.90;;;16.30;99.90;;;;;;5095782;28;20541;-70
2021/10/03 00:23:10;;;;;;;13.47;11.80;;;16.20;99.90;;;;;;5095352;28;20909;-70
2021/10/03 00:25:39;;;;;;;15.70;11.27;;;16.20;99.90;;;;;;5095083;28;20446;-70
2021/10/03 00:28:07;;;;;;;13.60;12.10;;;16.30;99.90;;;;;;5095224;28;20461;-70
2021/10/03 00:30:36;;;;;;;12.30;11.00;;;16.20;99.90;;;;;;5095415;28;20932;-70
2021/10/03 00:33:03;;;;;;;16.13;11.90;;;16.30;99.90;;;;;;5094960;28;20523;-70
2021/10/03 00:35:30;;;;;;;15.70;12.73;;;16.30;99.90;;;;;;5095108;28;20836;-70
2021/10/03 00:37:59;;;;;;;17.73;12.77;;;16.30;99.90;;;;;;5095160;28;20915;-69
2021/10/03 00:40:28;;;;;;;17.47;12.17;;;16.20;99.90;;;;;;5095292;28;20840;-69
2021/10/03 00:42:57;;;;;;;15.30;13.23;;;16.20;99.90;;;;;;5095058;28;20457;-70
2021/10/03 00:45:23;;;;;;;18.67;12.97;;;16.20;99.90;;;;;;5095077;28;20465;-70
2021/10/03 00:47:50;;;;;;;14.03;12.33;;;16.20;99.90;;;;;;5095214;28;20773;-70
2021/10/03 00:50:18;;;;;;;15.77;13.37;;;16.30;99.90;;;;;;5095182;28;20469;-70
2021/10/03 00:52:46;;;;;;;14.50;12.37;;;16.20;99.90;;;;;;5095036;28;20450;-70
2021/10/03 00:55:15;;;;;;;18.10;12.10;;;16.30;99.90;;;;;;5094756;28;20534;-70
2021/10/03 00:57:42;;;;;;;16.13;12.27;;;16.20;99.90;;;;;;5094437;28;20457;-70
2021/10/03 01:00:12;;;;;;;15.83;12.00;;;16.20;99.90;;;;;;5094776;28;20462;-70
2021/10/03 01:02:39;;;;;;;14.97;12.67;;;16.20;99.90;;;;;;5095434;28;20891;-70
2021/10/03 01:05:08;;;;;;;14.93;11.83;;;16.20;99.90;;;;;;5094513;28;20453;-70
2021/10/03 01:07:36;;;;;;;13.80;11.83;;;16.20;99.90;;;;;;5094566;28;20949;-70
2021/10/03 01:10:04;;;;;;;16.00;13.10;;;16.10;99.90;;;;;;5094934;28;20789;-70
2021/10/03 01:12:31;;;;;;;13.27;11.30;;;16.10;99.90;;;;;;5094285;28;20465;-70
2021/10/03 01:14:57;;;;;;;15.60;11.90;;;16.00;99.90;;;;;;5094390;28;20464;-70
2021/10/03 01:17:25;;;;;;;14.47;11.23;;;16.10;99.90;;;;;;5094820;28;20461;-70
2021/10/03 01:19:53;;;;;;;15.27;11.53;;;16.10;99.90;;;;;;5094488;28;20910;-70
2021/10/03 01:22:23;;;;;;;13.43;11.67;;;16.00;99.90;;;;;;5094134;28;20576;-70
2021/10/03 01:24:50;;;;;;;13.63;12.13;;;16.00;99.90;;;;;;5094697;28;20450;-70
2021/10/03 01:27:16;;;;;;;13.63;11.40;;;16.00;99.90;;;;;;5094241;28;20464;-70
2021/10/03 01:29:43;;;;;;;12.73;10.40;;;16.00;99.90;;;;;;5094587;28;20470;-70
2021/10/03 01:32:10;;;;;;;14.70;10.77;;;16.00;99.90;;;;;;5094767;28;20829;-70
2021/10/03 01:34:37;;;;;;;11.97;10.67;;;16.00;99.90;;;;;;5094636;28;20745;-70
2021/10/03 01:37:04;;;;;;;14.37;12.30;;;16.00;99.90;;;;;;5094492;28;20511;-70
2021/10/03 01:39:32;;;;;;;12.93;11.40;;;16.00;99.90;;;;;;5094465;28;20788;-70
2021/10/03 01:41:59;;;;;;;15.00;11.77;;;16.00;99.90;;;;;;5094516;28;20791;-70
2021/10/03 01:44:25;;;;;;;12.33;10.70;;;16.00;99.90;;;;;;5094620;28;20453;-70
2021/10/03 01:46:52;;;;;;;14.90;11.53;;;16.00;99.90;;;;;;5094104;28;20511;-70
2021/10/03 01:49:19;;;;;;;15.30;10.93;;;16.00;99.90;;;;;;5094646;28;20465;-70
2021/10/03 01:51:45;;;;;;;13.43;10.57;;;16.00;99.90;;;;;;5094044;28;20481;-70
2021/10/03 01:54:12;;;;;;;11.27;10.00;;;16.00;99.90;;;;;;5094567;28;20794;-70
2021/10/03 01:56:40;;;;;;;15.83;10.80;;;16.00;99.90;;;;;;5094390;28;20569;-70
2021/10/03 01:59:07;;;;;;;11.37;10.17;;;16.00;99.90;;;;;;5094348;28;20563;-70
2021/10/03 02:01:36;;;;;;;13.60;10.43;;;16.00;99.90;;;;;;5093998;28;20462;-70
2021/10/03 02:04:07;;;;;;;12.30;10.87;;;16.00;99.90;;;;;;5094504;28;20522;-70
2021/10/03 02:06:41;;;;;;;11.90;10.70;;;15.90;99.90;;;;;;5094089;28;20434;-70
2021/10/03 02:09:07;;;;;;;12.30;10.07;;;15.90;99.90;;;;;;5094505;28;20499;-70
2021/10/03 02:11:34;;;;;;;11.00;9.47;;;15.80;99.90;;;;;;5094026;28;20519;-70
2021/10/03 02:14:02;;;;;;;13.60;10.30;;;15.80;99.90;;;;;;5094195;28;20457;-70
2021/10/03 02:16:29;;;;;;;14.60;11.50;;;15.80;99.90;;;;;;5093762;28;20974;-71
2021/10/03 02:18:56;;;;;;;10.77;9.30;;;15.80;99.90;;;;;;5094331;28;20481;-70
2021/10/03 02:21:23;;;;;;;11.43;9.87;;;15.90;99.90;;;;;;5097647;28;20468;-71
2021/10/03 02:23:49;;;;;;;11.77;10.53;;;15.80;99.90;;;;;;5097904;28;20453;-70
2021/10/03 02:26:16;;;;;;;11.17;10.03;;;15.80;99.90;;;;;;5097771;28;20923;-70
2021/10/03 02:28:43;;;;;;;23.10;11.57;;;15.80;99.90;;;;;;5097661;28;20518;-71
2021/10/03 02:31:12;;;;;;;13.80;10.80;;;15.80;99.90;;;;;;5097418;28;20974;-70
2021/10/03 02:33:42;;;;;;;11.63;9.47;;;15.80;99.90;;;;;;5097344;28;20953;-70
2021/10/03 02:36:09;;;;;;;11.27;10.07;;;15.80;99.90;;;;;;5097066;28;20484;-71
2021/10/03 02:38:37;;;;;;;14.07;10.17;;;15.80;99.90;;;;;;5097288;28;20469;-71
2021/10/03 02:41:05;;;;;;;10.43;9.30;;;15.80;99.90;;;;;;5097386;28;20461;-70
2021/10/03 02:43:34;;;;;;;11.60;10.40;;;15.80;99.90;;;;;;5097016;28;20465;-70
2021/10/03 02:46:03;;;;;;;13.10;9.30;;;15.80;99.90;;;;;;5097498;28;20453;-70
2021/10/03 02:48:34;;;;;;;12.33;9.07;;;15.80;99.90;;;;;;5097252;28;20453;-71
2021/10/03 02:51:01;;;;;;;11.67;9.43;;;15.80;99.90;;;;;;5097463;28;20507;-70
2021/10/03 02:53:28;;;;;;;12.00;9.23;;;15.80;99.90;;;;;;5097047;28;20917;-71
2021/10/03 02:55:54;;;;;;;14.70;9.40;;;15.80;99.90;;;;;;5097262;28;20484;-70
2021/10/03 02:58:21;;;;;;;11.33;10.13;;;15.80;99.90;;;;;;5097237;28;20796;-70
2021/10/03 03:00:50;;;;;;;11.47;9.70;;;15.80;99.90;;;;;;5096869;28;20461;-70
2021/10/03 03:03:17;;;;;;;13.37;10.50;;;15.80;99.90;;;;;;5096884;28;20454;-70
2021/10/03 03:05:45;;;;;;;12.07;9.47;;;15.70;99.90;;;;;;5096585;28;20453;-70
2021/10/03 03:08:12;;;;;;;11.17;9.90;;;15.70;99.90;;;;;;5097090;28;20458;-70
2021/10/03 03:10:39;;;;;;;11.80;9.63;;;15.70;99.90;;;;;;5097079;28;20837;-71
2021/10/03 03:13:06;;;;;;;13.60;9.70;;;15.70;99.90;;;;;;5097107;28;20477;-71
2021/10/03 03:15:32;;;;;;;11.53;9.00;;;15.60;99.90;;;;;;5097014;28;20561;-70
2021/10/03 03:17:59;;;;;;;11.77;9.00;;;15.70;99.90;;;;;;5096869;28;20453;-69
2021/10/03 03:20:26;;;;;;;11.77;9.70;;;15.60;99.90;;;;;;5096231;28;20469;-70
2021/10/03 03:22:54;;;;;;;11.97;9.70;;;15.60;99.90;;;;;;5096286;28;20481;-70
2021/10/03 03:25:21;;;;;;;9.73;8.73;;;15.60;99.90;;;;;;5096487;28;20462;-70
2021/10/03 03:27:48;;;;;;;15.00;10.30;;;15.60;99.90;;;;;;5096458;28;20454;-70
2021/10/03 03:30:15;;;;;;;10.27;8.77;;;15.60;99.90;;;;;;5096595;28;20500;-70
2021/10/03 03:32:42;;;;;;;12.90;9.60;;;15.60;99.90;;;;;;5096357;28;20457;-71
2021/10/03 03:35:10;;;;;;;12.27;9.93;;;15.60;99.90;;;;;;5096182;28;20461;-70
2021/10/03 03:37:38;;;;;;;15.87;10.43;;;15.60;99.90;;;;;;5096153;28;20478;-70
2021/10/03 03:40:08;;;;;;;9.77;8.77;;;15.60;99.90;;;;;;5095835;28;20920;-71
2021/10/03 03:42:35;;;;;;;14.00;10.00;;;15.60;99.90;;;;;;5096267;28;20511;-71
2021/10/03 03:45:02;;;;;;;12.27;10.40;;;15.60;99.90;;;;;;5096116;28;20453;-70
2021/10/03 03:47:28;;;;;;;10.83;9.73;;;15.60;99.90;;;;;;5096030;28;20465;-70
2021/10/03 03:49:55;;;;;;;10.20;9.10;;;15.60;99.90;;;;;;5096181;28;20453;-70
2021/10/03 03:52:22;;;;;;;9.83;8.83;;;15.70;99.90;;;;;;5096117;28;20461;-70
2021/10/03 03:54:49;;;;;;;9.70;8.70;;;15.60;99.90;;;;;;5096113;28;20469;-70
2021/10/03 03:57:17;;;;;;;11.80;10.20;;;15.70;99.90;;;;;;5095804;28;20481;-70
2021/10/03 03:59:44;;;;;;;12.57;9.20;;;15.70;99.90;;;;;;5095830;28;20458;-70
2021/10/03 04:02:11;;;;;;;12.30;9.67;;;15.70;99.90;;;;;;5096105;28;20765;-70
2021/10/03 04:04:38;;;;;;;10.57;8.90;;;15.70;99.90;;;;;;5096062;28;20784;-70
2021/10/03 04:07:05;;;;;;;10.37;9.30;;;15.70;99.90;;;;;;5095497;28;20460;-70
2021/10/03 04:09:32;;;;;;;9.63;8.63;;;15.70;99.90;;;;;;5095862;28;20457;-71
2021/10/03 04:11:58;;;;;;;11.67;10.30;;;15.60;99.90;;;;;;5095380;28;20910;-71
2021/10/03 04:14:27;;;;;;;10.50;9.43;;;15.60;99.90;;;;;;5095876;28;20457;-70
2021/10/03 04:16:53;;;;;;;10.27;8.40;;;15.70;99.90;;;;;;5095589;28;20474;-71
2021/10/03 04:19:22;;;;;;;11.13;9.77;;;15.70;99.90;;;;;;5095419;28;20457;-71
2021/10/03 04:21:49;;;;;;;14.03;10.43;;;15.70;99.90;;;;;;5095555;28;20546;-70
2021/10/03 04:24:15;;;;;;;11.60;9.27;;;15.70;99.90;;;;;;5095493;28;20451;-71
2021/10/03 04:26:42;;;;;;;11.23;9.90;;;15.60;99.90;;;;;;5095583;28;20450;-71
2021/10/03 04:29:09;;;;;;;12.30;9.97;;;15.60;99.90;;;;;;5095573;28;20453;-71
2021/10/03 04:31:37;;;;;;;11.00;9.90;;;15.60;99.90;;;;;;5094932;28;20907;-71
2021/10/03 04:34:04;;;;;;;10.67;9.57;;;15.60;99.90;;;;;;5095232;28;20903;-70
2021/10/03 04:36:31;;;;;;;11.40;9.77;;;15.50;99.90;;;;;;5095296;28;20478;-70
2021/10/03 04:38:58;;;;;;;10.87;9.60;;;15.50;99.90;;;;;;5095395;28;20458;-70
2021/10/03 04:41:24;;;;;;;13.00;10.67;;;15.50;99.90;;;;;;5095291;28;20473;-70
2021/10/03 04:43:51;;;;;;;10.20;9.10;;;15.50;99.90;;;;;;5094746;28;20469;-70
2021/10/03 04:46:18;;;;;;;12.57;10.00;;;15.50;99.90;;;;;;5094811;28;20924;-70
2021/10/03 04:48:46;;;;;;;13.23;10.17;;;15.50;99.90;;;;;;5095035;28;20461;-70
2021/10/03 04:51:13;;;;;;;10.60;9.17;;;15.50;99.90;;;;;;5095265;28;20527;-70
2021/10/03 04:53:39;;;;;;;16.63;10.73;;;15.50;99.90;;;;;;5094992;28;20458;-70
2021/10/03 04:56:06;;;;;;;13.20;11.80;;;15.50;99.90;;;;;;5094509;28;20457;-70
2021/10/03 04:58:33;;;;;;;9.70;8.70;;;15.50;99.90;;;;;;5095163;28;20465;-70
2021/10/03 05:01:00;;;;;;;13.37;9.77;;;15.50;99.90;;;;;;5094471;28;20464;-70
2021/10/03 05:03:27;;;;;;;12.97;9.23;;;15.50;99.90;;;;;;5095083;28;20468;-71
2021/10/03 05:05:55;;;;;;;15.83;9.83;;;15.50;99.90;;;;;;5095023;28;20457;-71
2021/10/03 05:08:22;;;;;;;16.47;10.40;;;15.50;99.90;;;;;;5094813;28;20792;-71
2021/10/03 05:10:49;;;;;;;15.03;10.37;;;15.50;99.90;;;;;;5095205;28;20462;-68
2021/10/03 05:13:15;;;;;;;12.10;9.40;;;15.50;99.90;;;;;;5095283;28;20458;-70
2021/10/03 05:15:43;;;;;;;14.83;9.83;;;15.60;99.90;;;;;;5095069;28;20545;-70
2021/10/03 05:18:10;;;;;;;10.90;8.80;;;15.60;99.90;;;;;;5095135;28;20482;-70
2021/10/03 05:20:37;;;;;;;11.23;10.13;;;15.50;99.90;;;;;;5095505;28;20772;-70
2021/10/03 05:23:05;;;;;;;13.83;10.57;;;15.60;99.90;;;;;;5094809;28;20485;-70
2021/10/03 05:25:33;;;;;;;11.87;9.90;;;15.60;99.90;;;;;;5094478;28;20457;-70
2021/10/03 05:27:59;;;;;;;13.20;10.27;;;15.60;99.90;;;;;;5095513;28;20545;-70
2021/10/03 05:30:26;;;;;;;10.80;9.67;;;15.60;99.90;;;;;;5095281;28;20454;-70
2021/10/03 05:32:53;;;;;;;14.90;10.60;;;15.60;99.90;;;;;;5096761;28;20457;-70
2021/10/03 05:35:20;;;;;;;12.03;9.97;;;15.60;99.90;;;;;;5100719;28;20454;-70
2021/10/03 05:37:48;;;;;;;15.00;10.50;;;15.60;99.90;;;;;;5101980;28;20800;-71
2021/10/03 05:40:16;;;;;;;12.03;10.33;;;15.60;99.90;;;;;;5099751;28;20856;-70
2021/10/03 05:42:45;;;;;;;12.80;10.27;;;15.60;99.90;;;;;;5100935;28;20454;-70
2021/10/03 05:45:12;;;;;;;15.10;10.80;;;15.60;99.90;;;;;;5099454;28;20446;-70
2021/10/03 05:47:39;;;;;;;13.73;10.90;;;15.60;99.90;;;;;;5099476;28;20783;-70
2021/10/03 05:50:07;;;;;;;11.40;10.20;;;15.60;99.90;;;;;;5098475;28;20453;-71
2021/10/03 05:52:34;;;;;;;16.63;10.80;;;15.60;99.90;;;;;;5097385;28;20454;-70
2021/10/03 05:55:01;;;;;;;10.97;9.87;;;15.60;99.90;;;;;;5096741;28;20454;-71
2021/10/03 05:57:29;;;;;;;14.30;10.10;;;15.60;99.90;;;;;;5098217;28;20484;-70
2021/10/03 05:59:56;;;;;;;11.43;10.33;;;15.60;99.90;;;;;;5098786;28;20851;-70
2021/10/03 06:02:22;;;;;;;11.30;10.17;;;15.70;99.90;;;;;;5098293;28;20453;-70
2021/10/03 06:04:49;;;;;;;12.80;11.43;;;15.70;99.90;;;;;;5098170;28;20526;-72
2021/10/03 06:07:16;;;;;;;11.90;9.50;;;15.80;99.90;;;;;;5098332;28;20457;-70
2021/10/03 06:09:44;;;;;;;13.80;10.53;;;15.80;99.90;;;;;;5098182;28;20842;-69
2021/10/03 06:12:11;;;;;;;14.60;10.93;;;15.80;99.90;;;;;;5097994;28;20457;-71
2021/10/03 06:14:39;;;;;;;13.97;10.17;;;15.80;99.90;;;;;;5098215;28;20457;-70
2021/10/03 06:17:06;;;;;;;12.97;10.43;;;15.80;99.90;;;;;;5097976;28;20477;-70
2021/10/03 06:19:32;;;;;;;15.80;10.93;;;15.80;99.90;;;;;;5098405;28;20462;-69
2021/10/03 06:22:01;;;;;;;14.70;10.57;;;15.80;99.90;;;;;;5098000;28;20869;-69
2021/10/03 06:24:28;;;;;;;11.30;10.20;;;15.80;99.90;;;;;;5098011;28;20486;-71
2021/10/03 06:26:55;;;;;;;12.63;10.57;;;15.80;99.90;;;;;;5098027;28;20469;-71
2021/10/03 06:29:22;;;;;;;10.77;9.43;;;15.80;99.90;;;;;;5098065;28;20511;-70
2021/10/03 06:31:50;;;;;;;12.53;10.20;;;15.90;99.90;;;;;;5098225;28;20534;-70
2021/10/03 06:34:17;;;;;;;14.30;10.10;;;15.90;99.90;;;;;;5097467;28;20911;-70
2021/10/03 06:36:44;;;;;;;13.20;10.40;;;16.00;99.90;;;;;;5097871;28;20506;-70
2021/10/03 06:39:11;;;;;;;13.40;11.30;;;16.00;99.90;;;;;;5097731;28;20457;-70
2021/10/03 06:41:37;;;;;;;14.23;10.90;;;15.90;99.90;;;;;;5097788;28;20541;-70
2021/10/03 06:44:06;;;;;;;12.33;10.30;;;16.00;99.90;;;;;;5097900;28;20519;-70
2021/10/03 06:46:33;;;;;;;11.33;10.20;;;16.00;99.90;;;;;;5097541;28;20469;-70
2021/10/03 06:49:01;;;;;;;15.17;10.07;;;16.10;99.90;;;;;;5097333;28;20934;-70
2021/10/03 06:51:29;;;;;;;16.23;11.30;;;16.10;99.90;;;;;;5097490;28;20450;-70
2021/10/03 06:53:56;;;;;;;11.97;10.30;;;16.20;99.90;;;;;;5097271;28;20458;-71
2021/10/03 06:56:23;;;;;;;11.53;10.40;;;16.20;99.90;;;;;;5097049;28;20454;-71
2021/10/03 06:58:50;;;;;;;12.30;10.93;;;16.30;99.90;;;;;;5096982;28;21033;-70
2021/10/03 07:01:16;;;;;;;13.30;10.43;;;16.30;99.90;;;;;;5097304;28;20839;-70
2021/10/03 07:03:43;;;;;;;11.87;10.30;;;16.30;99.90;;;;;;5096453;28;20515;-71
2021/10/03 07:06:11;;;;;;;11.83;9.47;;;16.30;99.90;;;;;;5096527;28;20468;-69
2021/10/03 07:08:38;;;;;;;11.80;10.33;;;16.40;99.90;;;;;;5097118;28;20460;-69
2021/10/03 07:11:05;;;;;;;12.00;10.20;;;16.40;99.90;;;;;;5097039;28;20454;-69
2021/10/03 07:13:32;;;;;;;12.60;11.17;;;16.40;99.90;;;;;;5096805;28;20458;-71
2021/10/03 07:15:59;;;;;;;12.57;11.03;;;16.40;99.90;;;;;;5096863;28;20461;-70
2021/10/03 07:18:25;;;;;;;11.70;10.60;;;16.40;99.90;;;;;;5096766;28;20485;-70
2021/10/03 07:20:52;;;;;;;16.50;10.97;;;16.40;99.90;;;;;;5096921;28;20469;-70
2021/10/03 07:23:20;;;;;;;12.60;10.93;;;16.40;99.90;;;;;;5096554;28;20478;-70
2021/10/03 07:25:47;;;;;;;12.83;10.97;;;16.50;99.90;;;;;;5096615;28;20465;-70
2021/10/03 07:28:14;;;;;;;11.63;10.43;;;16.50;99.90;;;;;;5096619;28;20457;-70
2021/10/03 07:30:41;;;;;;;16.43;10.80;;;16.50;99.90;;;;;;5096646;28;20458;-70
2021/10/03 07:33:07;;;;;;;13.30;11.00;;;16.50;99.90;;;;;;5095992;28;20461;-70
2021/10/03 07:35:34;;;;;;;13.73;10.90;;;16.50;99.90;;;;;;5096535;28;20522;-71
2021/10/03 07:38:02;;;;;;;14.13;11.67;;;16.60;99.90;;;;;;5096740;28;20521;-70
2021/10/03 07:40:30;;;;;;;12.50;10.47;;;16.60;99.90;;;;;;5096582;28;21071;-70
2021/10/03 07:42:57;;;;;;;11.50;10.30;;;16.60;99.90;;;;;;5096115;28;20459;-70
2021/10/03 07:45:23;;;;;;;11.63;10.37;;;16.50;99.90;;;;;;5096403;28;20526;-70
2021/10/03 07:47:50;;;;;;;11.97;10.77;;;16.60;99.90;;;;;;5096436;28;20497;-70
2021/10/03 07:50:17;;;;;;;12.27;10.97;;;16.70;99.90;;;;;;5096164;28;20461;-70
2021/10/03 07:52:44;;;;;;;12.50;10.83;;;16.80;99.90;;;;;;5095705;28;20461;-70
2021/10/03 07:55:11;;;;;;;18.53;10.90;;;16.80;99.90;;;;;;5095910;28;20515;-71
2021/10/03 07:57:40;;;;;;;11.37;10.20;;;16.80;99.90;;;;;;5096109;28;20482;-70
2021/10/03 08:00:08;;;;;;;11.50;10.30;;;16.80;99.90;;;;;;5096409;28;20453;-71
2021/10/03 08:02:35;;;;;;;11.00;9.90;;;16.90;99.90;;;;;;5096335;28;20457;-71
2021/10/03 08:05:01;;;;;;;11.40;10.10;;;16.80;99.90;;;;;;5096472;28;20468;-72
2021/10/03 08:07:28;;;;;;;15.33;11.07;;;16.80;99.90;;;;;;5096020;28;20895;-70
2021/10/03 08:09:55;;;;;;;11.40;10.20;;;16.80;99.90;;;;;;5096366;28;20465;-70
2021/10/03 08:12:22;;;;;;;11.17;10.10;;;16.90;99.90;;;;;;5096602;28;20462;-71
2021/10/03 08:14:50;;;;;;;11.33;9.60;;;17.00;99.90;;;;;;5098439;28;20454;-71
2021/10/03 08:17:18;;;;;;;12.70;10.20;;;17.00;99.90;;;;;;5098590;28;20539;-71
2021/10/03 08:19:45;;;;;;;11.10;10.00;;;17.10;99.90;;;;;;5099617;28;20477;-71
2021/10/03 08:22:11;;;;;;;11.43;9.60;;;17.10;99.90;;;;;;5099102;28;20494;-70
2021/10/03 08:24:38;;;;;;;12.70;11.33;;;17.10;99.90;;;;;;5097509;28;20465;-72
2021/10/03 08:27:05;;;;;;;11.47;10.27;;;17.10;99.90;;;;;;5097187;28;20458;-71
2021/10/03 08:29:34;;;;;;;10.67;9.57;;;17.10;99.90;;;;;;5097009;28;20454;-71
2021/10/03 08:32:02;;;;;;;11.13;10.03;;;17.20;99.90;;;;;;5095510;28;20458;-70
2021/10/03 08:34:29;;;;;;;12.23;10.20;;;17.20;99.90;;;;;;5095560;28;20640;-70
2021/10/03 08:36:56;;;;;;;12.40;10.20;;;17.20;99.90;;;;;;5095426;28;20458;-70
2021/10/03 08:39:22;;;;;;;13.17;10.40;;;17.20;99.90;;;;;;5095286;28;20954;-70
2021/10/03 08:41:49;;;;;;;11.03;9.60;;;17.30;99.90;;;;;;5094984;28;20514;-70
2021/10/03 08:44:18;;;;;;;10.37;9.37;;;17.30;99.90;;;;;;5095177;28;20536;-70
2021/10/03 08:46:46;;;;;;;13.33;10.40;;;17.40;99.90;;;;;;5095015;28;20888;-70
2021/10/03 08:49:16;;;;;;;12.73;9.80;;;17.50;99.90;;;;;;5095735;28;20472;-70
2021/10/03 08:51:47;;;;;;;12.93;9.63;;;17.60;99.90;;;;;;5095307;28;20454;-71
2021/10/03 08:54:15;;;;;;;10.10;9.10;;;17.70;99.90;;;;;;5095245;28;20438;-70
2021/10/03 08:56:41;;;;;;;10.03;9.00;;;17.80;99.90;;;;;;5094983;28;20461;-69
2021/10/03 08:59:08;;;;;;;10.00;9.00;;;17.90;99.90;;;;;;5094668;28;20982;-70
2021/10/03 09:01:49;;;;;;;11.27;9.17;;;18.00;99.90;;;;;;5095226;28;20462;-70
2021/10/03 09:04:27;;;;;;;11.07;9.83;;;18.10;99.90;;;;;;5094920;28;20911;-70
2021/10/03 09:07:05;;;;;;;11.50;9.17;;;18.30;99.90;;;;;;5094934;28;20918;-70
2021/10/03 09:09:52;;;;;;;14.90;9.70;;;18.40;99.90;;;;;;5095629;28;20453;-70
2021/10/03 09:12:23;;;;;;;11.23;9.80;;;18.40;99.90;;;;;;5094906;28;20904;-70
2021/10/03 09:14:50;;;;;;;11.80;9.13;;;18.40;99.90;;;;;;5094690;28;20851;-70
2021/10/03 09:17:18;;;;;;;10.57;9.30;;;18.40;99.90;;;;;;5094850;28;20456;-70
2021/10/03 09:20:11;;;;;;;11.80;9.37;;;18.40;99.90;;;;;;5094894;28;20790;-70
2021/10/03 09:23:03;;;;;;;13.60;9.07;;;18.50;99.90;;;;;;5094650;28;20544;-70
2021/10/03 09:25:39;;;;;;;11.00;9.40;;;18.50;99.90;;;;;;5094724;28;20472;-70
2021/10/03 09:28:09;;;;;;;11.50;8.60;;;18.50;99.90;;;;;;5095272;28;20506;-70
2021/10/03 09:30:36;;;;;;;9.80;8.80;;;18.50;99.90;;;;;;5099015;28;20456;-70
2021/10/03 09:33:04;;;;;;;13.93;8.80;;;18.50;99.90;;;;;;5098656;28;20515;-71
2021/10/03 09:35:34;;;;;;;8.77;7.87;;;18.50;99.90;;;;;;5099116;28;20787;-71
2021/10/03 09:38:10;;;;;;;9.73;8.73;;;18.50;99.90;;;;;;5098625;28;20524;-69
2021/10/03 09:40:37;;;;;;;10.57;9.57;;;18.50;99.90;;;;;;5098923;28;20515;-70
2021/10/03 09:43:04;;;;;;;11.43;9.20;;;18.50;99.90;;;;;;5098972;28;20464;-70
2021/10/03 09:45:32;;;;;;;10.97;9.23;;;18.60;99.90;;;;;;5098259;28;20474;-70
2021/10/03 09:48:01;;;;;;;13.27;9.73;;;18.70;99.90;;;;;;5098505;28;20449;-70
2021/10/03 09:50:29;;;;;;;10.40;8.87;;;18.80;99.90;;;;;;5098479;28;20472;-70
2021/10/03 09:52:57;;;;;;;12.03;9.20;;;18.90;99.90;;;;;;5099252;28;20521;-71
2021/10/03 09:55:31;;;;;;;9.30;8.40;;;19.00;99.90;;;;;;5098722;28;20483;-72
2021/10/03 09:57:59;;;;;;;9.80;8.90;;;19.20;99.90;;;;;;5099783;28;20535;-70
2021/10/03 10:00:28;;;;;;;11.10;8.77;;;19.30;99.90;;;;;;5099446;28;20517;-70
2021/10/03 10:02:55;;;;;;;10.20;9.20;;;19.40;99.90;;;;;;5098225;28;20495;-71
2021/10/03 10:05:25;;;;;;;11.10;9.83;;;19.40;99.90;;;;;;5098260;28;20450;-70
2021/10/03 10:07:52;;;;;;;10.80;9.70;;;19.50;99.90;;;;;;5098225;28;20465;-70
2021/10/03 10:10:21;;;;;;;9.93;8.73;;;19.60;99.90;;;;;;5098198;28;20557;-71
2021/10/03 10:12:55;;;;;;;13.60;8.80;;;19.70;99.90;;;;;;5097906;28;20465;-69
2021/10/03 10:15:24;;;;;;;9.80;8.90;;;19.70;99.90;;;;;;5097830;28;20450;-70
2021/10/03 10:17:51;;;;;;;10.90;8.70;;;19.80;99.90;;;;;;5097683;28;20485;-70
2021/10/03 10:20:36;;;;;;;8.97;8.07;;;19.90;99.90;;;;;;5098456;28;20468;-70
2021/10/03 10:23:06;;;;;;;10.00;8.07;;;20.00;99.90;;;;;;5097486;28;20481;-70
2021/10/03 10:25:44;;;;;;;10.03;8.77;;;20.10;99.90;;;;;;5098044;28;20457;-70
2021/10/03 10:28:14;;;;;;;9.90;8.67;;;20.20;99.90;;;;;;5097871;28;20449;-70
2021/10/03 10:31:04;;;;;;;8.70;7.90;;;20.30;99.90;;;;;;5097835;28;20437;-70
2021/10/03 10:34:10;;;;;;;12.40;8.50;;;20.50;99.90;;;;;;5097996;28;21008;-70
2021/10/03 10:36:53;;;;;;;14.10;7.80;;;20.50;99.90;;;;;;5097821;28;20791;-71
2021/10/03 10:39:23;;;;;;;8.87;7.97;;;20.60;99.90;;;;;;5096220;28;20485;-69
2021/10/03 10:41:53;;;;;;;9.50;8.57;;;20.70;99.90;;;;;;5097044;28;20468;-70
2021/10/03 10:44:31;;;;;;;9.40;8.50;;;20.80;99.90;;;;;;5097644;28;20469;-70
2021/10/03 10:46:59;;;;;;;8.93;7.90;;;20.90;99.90;;;;;;5096946;28;20476;-70
2021/10/03 10:49:35;;;;;;;9.30;8.40;;;21.10;99.90;;;;;;5097312;28;20460;-70
2021/10/03 10:52:26;;;;;;;9.07;8.00;;;21.30;99.90;;;;;;5096973;28;20540;-70
2021/10/03 10:55:27;;;;;;;10.17;7.97;;;21.50;99.90;;;;;;5096971;28;20521;-70
2021/10/03 10:58:11;;;;;;;7.60;6.90;;;21.70;99.90;;;;;;5097584;28;20453;-69
2021/10/03 11:00:56;;;;;;;8.40;7.50;;;21.90;99.90;;;;;;5097179;28;20449;-69
2021/10/03 11:04:02;;;;;;;9.87;8.73;;;22.00;99.90;;;;;;5097079;28;20511;-70
2021/10/03 11:07:05;;;;;;;9.53;7.43;;;22.10;99.90;;;;;;5097268;28;20915;-70
2021/10/03 11:09:53;;;;;;;8.03;7.23;;;22.40;99.90;;;;;;5097075;28;20438;-70
2021/10/03 11:12:31;;;;;;;8.90;8.00;;;22.40;99.90;;;;;;5096629;28;20518;-70
2021/10/03 11:15:25;;;;;;;11.83;7.53;;;22.60;99.90;;;;;;5096793;28;20995;-70
2021/10/03 11:17:52;;;;;;;10.03;7.47;;;22.60;99.90;;;;;;5097142;28;20452;-70
2021/10/03 11:20:19;;;;;;;8.97;7.23;;;22.70;99.90;;;;;;5096826;28;20983;-70
2021/10/03 11:22:45;;;;;;;8.33;7.53;;;22.80;99.90;;;;;;5096440;28;20546;-71
2021/10/03 11:25:18;;;;;;;8.27;7.30;;;22.90;99.90;;;;;;5096681;28;20453;-71
2021/10/03 11:27:54;;;;;;;8.70;7.30;;;23.10;99.90;;;;;;5096753;28;20441;-70
2021/10/03 11:30:21;;;;;;;7.87;7.13;;;23.30;99.90;;;;;;5097002;28;20529;-71
2021/10/03 11:32:49;;;;;;;8.43;6.93;;;23.50;99.90;;;;;;5096384;28;20545;-69
2021/10/03 11:35:17;;;;;;;7.23;6.60;;;23.70;99.90;;;;;;5096597;28;20469;-70
2021/10/03 11:37:48;;;;;;;8.10;7.30;;;23.90;99.90;;;;;;5096394;28;20450;-70
2021/10/03 11:40:17;;;;;;;7.60;6.93;;;24.10;99.90;;;;;;5096274;28;20548;-70
2021/10/03 11:42:45;;;;;;;10.17;8.17;;;24.30;99.90;;;;;;5096047;28;20457;-71
2021/10/03 11:45:14;;;;;;;9.10;6.17;;;24.30;99.90;;;;;;5096055;28;20442;-70
2021/10/03 11:47:43;;;;;;;8.43;7.13;;;24.40;99.90;;;;;;5096183;28;20454;-70
2021/10/03 11:50:15;;;;;;;7.03;6.30;;;24.70;19.50;;;;;;5096103;28;20458;-70
2021/10/03 11:52:42;;;;;;;13.40;7.60;;;25.10;12.10;;;;;;5094938;28;20452;-70
2021/10/03 11:55:16;;;;;;;6.43;5.93;;;25.60;1.00;;;;;;5096199;28;20499;-70
2021/10/03 11:57:45;;;;;;;7.27;6.53;;;26.40;1.00;;;;;;5096141;28;20529;-70
2021/10/03 12:00:25;;;;;;;7.00;6.40;;;27.30;1.00;;;;;;5096132;28;20489;-70
2021/10/03 12:02:53;;;;;;;7.73;6.03;;;28.20;1.00;;;;;;5095891;28;20441;-70
2021/10/03 12:05:24;;;;;;;7.43;6.80;;;28.70;1.00;;;;;;5096177;28;20464;-70
2021/10/03 12:08:04;;;;;;;6.53;5.90;;;28.60;1.00;;;;;;5096029;28;20460;-70
2021/10/03 12:10:36;;;;;;;7.63;6.20;;;28.30;1.00;;;;;;5095939;28;20457;-70
2021/10/03 12:13:12;;;;;;;7.00;5.80;;;27.90;1.00;;;;;;5096123;28;20457;-70
2021/10/03 12:15:49;;;;;;;6.90;5.70;;;27.90;1.00;;;;;;5096191;28;20442;-69
2021/10/03 12:18:38;;;;;;;7.37;6.53;;;27.90;1.00;;;;;;5075630;28;20454;-69
2021/10/03 12:21:08;;;;;;;6.87;6.13;;;27.80;1.00;;;;;;5075672;28;20449;-71
2021/10/03 12:23:47;;;;;;;7.20;6.60;;;27.60;1.00;;;;;;5074758;28;20482;-70
2021/10/03 12:26:20;;;;;;;8.83;6.13;;;27.40;1.00;;;;;;5075874;28;20808;-70
2021/10/03 12:29:03;;;;;;;7.03;6.43;;;27.20;1.00;;;;;;5075679;28;20510;-71
2021/10/03 12:31:42;;;;;;;7.20;6.50;;;27.10;1.00;;;;;;5075332;28;20439;-70
2021/10/03 12:34:30;;;;;;;8.03;7.20;;;27.20;1.00;;;;;;5074709;28;20435;-70
2021/10/03 12:37:00;;;;;;;8.13;5.53;;;27.40;1.00;;;;;;5074954;28;20432;-71
2021/10/03 12:39:28;;;;;;;6.77;6.10;;;27.80;1.00;;;;;;5075060;28;20836;-71
2021/10/03 12:41:57;;;;;;;7.00;6.30;;;28.20;1.00;;;;;;5075063;28;20465;-70
2021/10/03 12:44:24;;;;;;;8.33;6.03;;;28.90;1.00;;;;;;5074842;28;20920;-70
2021/10/03 12:46:51;;;;;;;5.70;5.20;;;29.50;1.00;;;;;;5074907;28;20937;-69